Meteo Giornale » Osservazioni meteo Stati Uniti (USA) » Minot
ore: 16:22 - Osservazioni Meteo Minot
Lat. 48° 15' N Lon. 101° 16' W Alt. 523 metri s.l.m.
26 °C
Molto Nuvoloso
Temp. 24 Ore
13 °C
26 °C
Ovest
44.4 Km/h
Dew point 10 °C
Umidità 36 %
Visibilità 10 Km
Il sole sorge alle ore 07:01
Il sole tramonta alle ore 20:28
| Data e Ora | Cielo e Fenomeni | T °C | DP °C | Um. % | Pres. hPa | Vis. km | Vento km/h | |
|---|---|---|---|---|---|---|---|---|
| Oggi h: 16:22 | Molto Nuvoloso | 26 | 10 | 36 | 1007 | 10 | O 44.4 | |
| Oggi h: 15:54 | Molto Nuvoloso | 26 | 9 | 34 | 1006 | 10 | O/SO 35.2 | |
| Oggi h: 14:54 | Sereno | 26 | 9 | 34 | 1006 | 10 | O/SO 48.1 | |
| Oggi h: 13:54 | Sereno | 25 | 8 | 33 | 1006 | 10 | O/SO 53.7 | |
| Oggi h: 12:54 | Sereno | 24 | 9 | 38 | 1006 | 10 | SO 42.6 | |
| Oggi h: 11:54 | Sereno | 22 | 9 | 43 | 1007 | 10 | S/SO 40.7 | |
| Oggi h: 10:54 | Sereno | 20 | 9 | 49 | 1007 | 10 | S/SO 35.2 | |
| Oggi h: 09:54 | Sereno | 18 | 9 | 55 | 1008 | 10 | S/SO 37 | |
| Oggi h: 08:54 | Sereno | 16 | 11 | 72 | 1008 | 10 | S/SO 22.2 | |
| Oggi h: 07:54 | Sereno | 14 | 11 | 82 | 1008 | 10 | S 18.5 | |
| Oggi h: 06:54 | Sereno | 13 | 11 | 87 | 1007 | 10 | S 14.8 | |
| Oggi h: 05:54 | Sereno | 14 | 11 | 82 | 1008 | 10 | S 13 | |
| Oggi h: 04:54 | Sereno | 14 | 11 | 82 | 1008 | 10 | S/SO 22.2 | |
| Oggi h: 03:54 | Sereno | 14 | 12 | 87 | 1008 | 10 | SO 16.7 | |
| Oggi h: 02:54 | Sereno | 14 | 12 | 87 | 1008 | 10 | O/SO 16.7 | |
| Oggi h: 01:54 | Sereno | 14 | 12 | 87 | 1008 | 10 | S/SO 11.1 | |
| Oggi h: 00:54 | Sereno | 16 | 13 | 82 | 1007 | 10 | O/SO 18.5 | |
| Ieri h: 23:54 | Sereno | 16 | 13 | 82 | 1007 | 10 | O/SO 20.3 | |
| Ieri h: 22:54 | Sereno | 17 | 16 | 93 | 1007 | 10 | SO 18.5 | |
| Ieri h: 21:54 | Sereno | 18 | 17 | 93 | 1007 | 10 | SO 9.3 | |
| Ieri h: 20:54 | Pioggia | 19 | 17 | 88 | 1008 | 10 | O 29.6 | |
| Ieri h: 19:54 | Pioggia | 18 | 17 | 93 | 1006 | 13 | O/SO 25.9 | |
| Ieri h: 19:50 | Pioggia | 19 | 17 | 88 | 1006 | 14 | O/SO 29.6 | |
| Ieri h: 19:41 | Temporale nelle vicinanze Pioggia | 19 | 17 | 88 | 1006 | 13 | O/SO 22.2 | |
| Ieri h: 19:17 | Temporale | 18 | 17 | 93 | 1006 | 13 | S/SO 16.7 | |
| Ieri h: 19:08 | Temporale Foschia | 18 | 17 | 93 | 1006 | 2 | S/SE 14.8 | |
| Ieri h: 18:54 | Temporale Foschia | 18 | 17 | 93 | 1005 | 10 | O 22.2 | |
| Ieri h: 18:38 | Temporale | 21 | 16 | 73 | 1005 | 10 | O/SO 31.5 | |
| Ieri h: 18:31 | Temporale nelle vicinanze | 23 | 17 | 68 | 1005 | 10 | O 27.8 | |
| Ieri h: 17:54 | Molto Nuvoloso | 24 | 19 | 73 | 1004 | 10 | E/SE 16.7 | |
| Ieri h: 16:54 | Sereno | 25 | 19 | 69 | 1004 | 10 | E/SE 27.8 | |



